To NAV CANADA Home Page Login to a new session Search on AWWS site Feedback and Comments Disclaimer Vers la page française équivalente Tips FAQ What's new on the site To the Forecasts and Observations / NOTAM section To "File a Flight Plan" website Publications and other links Update of the User's profile FIC Telephone Numbers My Weather Data Folder Route Weather Data Regional Weather Data Local Weather Data To the Forecasts and Observations / NOTAM section
Request Generated 04/21/2015 at 05:00:43 UTC . Weather information available at that time is displayed.

METAR/TAF

PAULATUK/PAULATUK (NORA ALIQATCHIALUK RUBEN)/NT    

LWIS CYPC 210400Z AUTO 13021G28KT M02/M09 A2991=
LWIS CYPC 210300Z AUTO 15026G33KT M01/M09 A2991=
LWIS CYPC 210200Z AUTO 14021KT M01/M07 A2993=

*** REMARK        : Forecast period has ended; this was the last TAF issued
*** REMARQUE : La période de prévision est échue; ceci était le dernier TAF qui a été émis
TAF CYPC 201838Z 2019/2023 10012G22KT P6SM FEW210
BECMG 2019/2021 15020G30KT
RMK NXT FCST WILL BE ISSUED AT 211445Z=
Your time UTC time
Weather data provided by Environment Canada and NAV CANADA